Tiempo atmosférico en la estación meteorológica de Calanda, Teruel (459 m.)



Fecha
DESCASC
Temp. máxima en grados centígrados (hora)
DESCASC
Temp. mínima en grados centígrados (hora)
DESCASC
Temp. media en grados centígrados
DESCASC
Racha de viento máxima en m/sg (hora)
DESCASC
Velocidad máxima media en intervalos de 10 minutos(hora)
DESCASC
Precipitaciones diarias en mm
DESCASC
Precipitaciones de 00:00 a 06:00 en mm
DESCASC
Precipitaciones de 06:00 a 12:00 en mm
DESCASC
Precipitaciones de 12:00 a 18:00 en mm
DESCASC
Precipitaciones de 18:00 a 24:00 en mm
DESCASC
15-08-2019 31.7 (18:10) 19.4 (07:30) 25.6 8.89 (15:30) 5 (15:40) 0 0 0 0 0
14-08-2019 32.9 (16:40) 16 (00:00) 24.5 8.89 (17:50) 5.28 (16:50) 0 0 0 0 0
13-08-2019 27.4 (19:20) 16.1 (00:00) 21.8 8.61 (04:00) 5.28 (02:50) 0 0 0 0 0
12-08-2019 27.4 (16:20) 16.9 (00:00) 22.1 12.78 (17:20) 6.94 (20:20) 0 0 0 0 0
11-08-2019 31.8 (18:50) 18.8 (00:00) 25.3 10.28 (23:10) 6.11 (21:30) 0 0 0 0 0
10-08-2019 34.3 (17:30) 20.2 (00:00) 27.3 10.28 (19:50) 5.56 (00:10) 0 0 0 0 0
09-08-2019 41.2 (16:50) 24.7 (00:00) 33 10.83 (23:50) 6.11 (23:50) 0 0 0 0 0
08-08-2019 37.4 (18:00) 21.9 (00:00) 29.7 7.78 (21:00) 4.72 (20:30) 0 0 0 0 0
07-08-2019 29.9 (17:30) 21.7 (00:00) 25.8 -- (--) -- (--) 0 0 0 0 0
06-08-2019 36.7 (18:40) 20.6 (00:00) 28.7 -- (--) -- (--) 0 0 0 0 0
05-08-2019 36.6 (18:30) 19.8 (00:00) 28.2 9.44 (18:00) 5.56 (18:00) 0 0 0 0 0
04-08-2019 37.6 (16:50) 19.3 (00:00) 28.4 8.89 (19:10) 4.72 (18:40) 0 0 0 0 0
03-08-2019 37.6 (17:10) 19.6 (00:00) 28.6 10 (20:40) 5.28 (22:10) 0 0 0 0 0
02-08-2019 34.1 (18:50) 19.7 (00:00) 26.9 7.22 (18:10) 3.06 (15:10) 0 0 0 0 0
01-08-2019 34.4 (18:40) 20.9 (00:00) 27.7 8.61 (05:50) 4.17 (02:10) 0 0 0 0 0
31-07-2019 32.2 (16:20) 15.6 (00:00) 23.9 11.39 (19:30) 7.22 (19:30) 0 0 0 0 0
30-07-2019 28.9 (16:20) 17.4 (00:00) 23.1 10 (00:50) 5.56 (00:40) 0 0 0 0 0
29-07-2019 35.4 (18:40) 16.5 (00:00) 26 11.67 (22:00) 6.39 (22:00) 0 0 0 0 0
28-07-2019 28.7 (18:30) 14.8 (00:00) 21.8 13.33 (00:50) 7.22 (10:40) 0 0 0 0 0
27-07-2019 28.8 (16:30) 18.1 (00:00) 23.4 13.33 (18:10) 8.61 (18:00) 0 0 0 0 0
26-07-2019 30.4 (17:40) 21.7 (00:00) 26.1 11.39 (01:10) 5.83 (00:30) 3.2 0 0.4 0.6 2.2
25-07-2019 40.3 (15:20) 23.2 (00:00) 31.8 11.94 (18:40) 6.39 (23:10) 0.8 0 0 0 0.8
24-07-2019 40.7 (15:20) 24.4 (00:00) 32.6 13.33 (20:30) 8.33 (20:30) 0 0 0 0 0
23-07-2019 40.9 (15:40) 23.2 (00:00) 32.1 12.78 (20:20) 7.22 (20:20) 0 0 0 0 0
22-07-2019 39.6 (15:20) 22.7 (00:00) 31.1 15.83 (00:10) 8.89 (00:20) 0 0 0 0 0
21-07-2019 37.4 (15:20) 20.5 (00:00) 29 19.17 (01:00) 10.56 (00:30) 0 0 0 0 0
20-07-2019 38 (15:50) 19.4 (07:00) 28.7 18.33 (23:30) 9.72 (20:00) 0 0 0 0 0
19-07-2019 36.2 (17:10) 18.4 (00:00) 27.3 13.61 (22:50) 7.5 (22:00) 0 0 0 0 0

Gráficas

Temp. máximas Temp. mínimas Temp. medias Precipitaciones Rachas de viento máximas Velocidades máximas media en intervalos de 10 minutos

Datos horarios

Fecha y hora oficial Temperatura (ºC) Velocidad del viento (km/h) Dirección del viento Racha (km/h) Dirección de racha Precipitación (mm) Presión (hPa) Tendencia (hPa) Humedad (%)
2019-08-17 23:00:00 27.6 19 Sur 40 Sur 0 958.5 0.2 53
2019-08-17 22:00:00 28.4 16 Sur 32 Sur 0 958.5 0.1 52
2019-08-17 21:00:00 30 17 Sur 32 Sudeste 0 958.2 -0.8 47
2019-08-17 20:00:00 33.5 18 Sudeste 27 Sudeste 0 958.3 -1.1 37
2019-08-17 19:00:00 36.3 9 Este 20 Este 0 958.4 -1.5 28
2019-08-17 18:00:00 36.8 13 Este 31 Este 0 959 -1.8 27
2019-08-17 17:00:00 36.6 10 Norte 20 Noroeste 0 959.4 -2 19
2019-08-17 16:00:00 35.3 11 Norte 21 Norte 0 959.9 -2.1 23
2019-08-17 15:00:00 34.2 9 Norte 22 Norte 0 960.8 -1.8 28
2019-08-17 14:00:00 32.5 9 Nordeste 23 Nordeste 0 961.4 -1.4 34
2019-08-17 13:00:00 30.1 11 Norte 19 Norte 0 962 -0.9 41
2019-08-17 12:00:00 28.6 7 Norte 17 Nordeste 0 962.6 -0.1 46
2019-08-17 11:00:00 27.6 6 Norte 12 Norte 0 962.8 0.6 51
2019-08-17 10:00:00 25 2 Este 9 Noroeste 0 962.9 0.8 62
2019-08-17 09:00:00 22.3 4 Noroeste 9 Oeste 0 962.7 0.7 73
2019-08-17 08:00:00 20.3 2 Oeste 6 Sur 0 962.2 0.5 78
2019-08-17 07:00:00 20.5 3 Sur 10 Noroeste 0 962.1 0.3 73
2019-08-17 06:00:00 21.9 8 Noroeste 13 Noroeste 0 962 0.3 66
2019-08-17 05:00:00 22.5 6 Sudoeste 8 Sudoeste 0 961.7 -0.3 68
2019-08-17 04:00:00 23.2 3 Sudoeste 9 Norte 0 961.8 -0.3 66
2019-08-17 03:00:00 24.8 4 Sudeste 14 Sur 0 961.7 -0.4 60
2019-08-17 02:00:00 24.9 3 Sur 16 Sur 0 962 -0.1 60
2019-08-17 01:00:00 25.8 8 Sur 13 Sudoeste 0 962.1 0.3 57
2019-08-17 00:00:00 26.1 8 Sudeste 24 Sur 0 962.1 0.8 55
2019-08-16 23:00:00 26.8 11 Sur 30 Sur 0 962.1 1.3 53
2019-08-16 22:00:00 28 14 Sur 27 Sudeste 0 961.8 0.9 49
2019-08-16 21:00:00 29.9 16 Sudeste 30 Sudeste 0 961.3 0.1 42
2019-08-16 20:00:00 33.2 6 Norte 22 Norte 0 960.8 -1 29
2019-08-16 19:00:00 33.6 10 Norte 23 Nordeste 0 960.9 -1.6 24
2019-08-16 18:00:00 33.8 9 Nordeste 23 Noroeste 0 961.2 -2.1 22
2019-08-16 17:00:00 33.3 14 Norte 28 Norte 0 961.8 -2.3 22
2019-08-16 16:00:00 32.7 13 Norte 22 Norte 0 962.5 -2.5 23
2019-08-16 15:00:00 31.5 10 Norte 22 Nordeste 0 963.3 -2.3 23
2019-08-16 14:00:00 29.9 9 Nordeste 19 Norte 0 964.1 -1.8 25
2019-08-16 13:00:00 27.9 9 Norte 17 Norte 0 965 -1 27
2019-08-16 12:00:00 25.8 8 Norte 19 Norte 0 965.6 -0.4 32
2019-08-16 11:00:00 23.6 6 Nordeste 13 Nordeste 0 965.9 0.4 37
2019-08-16 10:00:00 21.4 5 Norte 13 Norte 0 966 0.5 42
2019-08-16 09:00:00 19.3 4 Norte 8 Norte 0 966 0.4 49
2019-08-16 08:00:00 17.1 0 Calma 5 Sur 0 965.5 -0.2 54
2019-08-16 07:00:00 16.9 4 Oeste 6 Noroeste 0 965.5 -0.1 55
2019-08-16 06:00:00 17.5 3 Noroeste 5 Norte 0 965.6 -0.4 53
2019-08-16 05:00:00 18.9 2 Nordeste 8 Norte 0 965.7 -0.8 50
2019-08-16 04:00:00 20.1 3 Sur 11 Sudoeste 0 965.6 -0.9 47
2019-08-16 03:00:00 21.4 9 Sudoeste 15 Sudoeste 0 966 -0.5 43
2019-08-16 02:00:00 22 9 Sudoeste 21 Sudoeste 0 966.5 0.3 41
2019-08-16 01:00:00 22.7 9 Sudoeste 17 Sudoeste 0 966.5 0.9 37
2019-08-16 00:00:00 23.5 8 Oeste 22 Noroeste 0 966.5 2 33
2019-08-15 23:00:00 24.8 15 Noroeste 26 Noroeste 0 966.2 2 30
2019-08-15 22:00:00 26.3 13 Noroeste 26 Noroeste 0 965.6 1.8 25
2019-08-15 21:00:00 28.1 14 Noroeste 22 Noroeste 0 964.5 0.7 24
2019-08-15 20:00:00 30.3 15 Norte 25 Norte 0 964.2 0 21
2019-08-15 19:00:00 31.3 14 Noroeste 25 Noroeste 0 963.8 -0.8 26
2019-08-15 18:00:00 31.6 12 Noroeste 25 Norte 0 963.8 -1.2 27
2019-08-15 17:00:00 31.4 16 Noroeste 27 Norte 0 964.2 -1.2 28
2019-08-15 16:00:00 30.7 13 Norte 32 Norte 0 964.6 -1.4 29
2019-08-15 15:00:00 30.9 16 Noroeste 28 Norte 0 965 -1.6 28
2019-08-15 14:00:00 29.9 10 Noroeste 23 Noroeste 0 965.4 -1.6 31
2019-08-15 13:00:00 29 6 Noroeste 21 Noroeste 0 966 -0.9 33
2019-08-15 12:00:00 27.1 11 Noroeste 20 Noroeste 0 966.6 -0.5 37
2019-08-15 11:00:00 25.3 13 Noroeste 28 Oeste 0 967 0.3 43
2019-08-15 10:00:00 24 12 Noroeste 18 Oeste 0 966.9 0.9 48
2019-08-15 09:00:00 21.9 8 Oeste 15 Sudoeste 0 967.1 1.5 56
2019-08-15 08:00:00 19.9 6 Oeste 12 Sudoeste 0 966.7 1.3 61
2019-08-15 07:00:00 19.9 6 Sudoeste 15 Sudoeste 0 966 0.7 58
2019-08-15 06:00:00 20.5 5 Oeste 14 Sudoeste 0 965.6 0.2 52
2019-08-15 05:00:00 21.5 7 Sudoeste 15 Sudoeste 0 965.4 -0.3 48
2019-08-15 04:00:00 22.6 11 Sudoeste 22 Sudoeste 0 965.3 -0.1 43
2019-08-15 03:00:00 22.9 14 Sudoeste 21 Sudoeste 0 965.4 0.3 38
2019-08-15 02:00:00 22.8 9 Sudoeste 13 Sudoeste 0 965.7 0.9 31
2019-08-15 01:00:00 23.2 7 Sudoeste 15 Oeste 0 965.4 1.2 31
2019-08-15 00:00:00 23.1 6 Sudoeste 13 Oeste 0 965.1 1.6 28
2019-08-14 23:00:00 23.8 5 Sudoeste 9 Oeste 0 964.8 1.7 26
2019-08-14 22:00:00 25.2 5 Oeste 8 Oeste 0 964.2 0.9 24
2019-08-14 21:00:00 28.8 3 Norte 15 Norte 0 963.5 0.1 21
2019-08-14 20:00:00 31.3 8 Norte 22 Norte 0 963.1 -0.5 15
2019-08-14 19:00:00 32 10 Norte 27 Norte 0 963.3 -0.9 14
2019-08-14 18:00:00 32.1 16 Norte 32 Norte 0 963.4 -1.2 14
2019-08-14 17:00:00 32.3 15 Norte 28 Norte 0 963.6 -1.7 14
2019-08-14 16:00:00 31.6 10 Noroeste 28 Norte 0 964.2 -1.8 13
2019-08-14 15:00:00 30.6 10 Norte 22 Norte 0 964.6 -1.8 14
2019-08-14 14:00:00 29.5 8 Norte 19 Norte 0 965.3 -1.2 16
2019-08-14 13:00:00 28.5 7 Noroeste 15 Norte 0 966 -0.6 16
2019-08-14 12:00:00 26.1 5 Nordeste 15 Nordeste 0 966.4 0.3 23
2019-08-14 11:00:00 24.8 5 Norte 13 Norte 0 966.5 0.5 25
2019-08-14 10:00:00 22.2 4 Norte 10 Sur 0 966.6 0.8 31
2019-08-14 09:00:00 18.9 7 Sur 15 Sudoeste 0 966.1 0.3 38
2019-08-14 08:00:00 16.4 12 Sudoeste 18 Sudoeste 0 966 0 45
2019-08-14 07:00:00 16.3 9 Sudoeste 16 Sudoeste 0 965.8 -0.4 46
2019-08-14 06:00:00 16.3 10 Sudoeste 15 Sudoeste 0 965.8 -0.5 46
2019-08-14 05:00:00 16.9 12 Sudoeste 17 Sudoeste 0 966 -0.5 45
2019-08-14 04:00:00 17.5 14 Sudoeste 22 Sudoeste 0 966.2 -0.4 45
2019-08-14 03:00:00 18.8 8 Sudoeste 25 Sudoeste 0 966.3 -0.4 42
2019-08-14 02:00:00 19.1 12 Sudoeste 22 Sudoeste 0 966.5 0.4 41
2019-08-14 01:00:00 19.4 12 Sudoeste 20 Sudoeste 0 966.6 1.2 39
2019-08-14 00:00:00 19.6 6 Sudoeste 17 Oeste 0 966.7 1.9 35
2019-08-13 23:00:00 20.6 10 Oeste 14 Oeste 0 966.1 1.7 32
2019-08-13 22:00:00 21.9 4 Oeste 21 Noroeste 0 965.4 1.1 29
2019-08-13 21:00:00 24.3 9 Noroeste 21 Norte 0 964.8 0.5 25
2019-08-13 20:00:00 26.2 14 Norte 24 Noroeste 0 964.4 -0.2 21
2019-08-13 19:00:00 26.9 11 Norte 27 Noroeste 0 964.3 -0.8 22
2019-08-13 18:00:00 26.8 13 Norte 27 Noroeste 0 964.3 -1.3 23
2019-08-13 17:00:00 26.7 11 Norte 29 Norte 0 964.6 -1.7 23
2019-08-13 16:00:00 26.2 13 Norte 27 Noroeste 0 965.1 -1.8 24
2019-08-13 15:00:00 26.2 11 Noroeste 29 Noroeste 0 965.6 -1.8 24
2019-08-13 14:00:00 24.4 12 Norte 25 Norte 0 966.3 -1.3 27
2019-08-13 13:00:00 23.7 6 Oeste 22 Noroeste 0 966.9 -1 29
2019-08-13 12:00:00 22.5 9 Oeste 23 Noroeste 0 967.4 -0.3 31
2019-08-13 11:00:00 20.8 12 Noroeste 25 Noroeste 0 967.6 -0.1 33
2019-08-13 10:00:00 19.2 4 Noroeste 14 Noroeste 0 967.9 0.6 37
2019-08-13 09:00:00 17.6 8 Oeste 15 Oeste 0 967.7 0.6 43
2019-08-13 08:00:00 16.3 6 Oeste 13 Sudoeste 0 967.7 0.3 48
2019-08-13 07:00:00 16.3 8 Oeste 22 Oeste 0 967.3 0 50
2019-08-13 06:00:00 16.3 13 Oeste 27 Oeste 0 967.1 -0.5 51
2019-08-13 05:00:00 16.5 13 Oeste 25 Oeste 0 967.4 -0.4 50
2019-08-13 04:00:00 16.5 14 Oeste 31 Sudoeste 0 967.3 -0.7 48
2019-08-13 03:00:00 16.7 16 Oeste 30 Oeste 0 967.6 -0.3 49
2019-08-13 02:00:00 16.6 15 Oeste 30 Oeste 0 967.8 0.3 51
2019-08-13 01:00:00 17.5 9 Oeste 22 Oeste 0 968 1.3 47
2019-08-13 00:00:00 18 9 Oeste 23 Oeste 0 967.9 2.5 45
2019-08-12 23:00:00 19.1 6 Oeste 26 Norte 0 967.5 3.1 39
2019-08-12 22:00:00 20.4 13 Noroeste 31 Noroeste 0 966.7 3.1 35
2019-08-12 21:00:00 21.7 19 Noroeste 44 Noroeste 0 965.4 1.9 32
2019-08-12 20:00:00 24.4 23 Noroeste 41 Noroeste 0 964.4 0.7 25
2019-08-12 19:00:00 26.4 19 Noroeste 37 Norte 0 963.6 -0.5 22
2019-08-12 18:00:00 26.9 22 Noroeste 46 Norte 0 963.5 -0.8 20
2019-08-12 17:00:00 26.9 22 Norte 38 Noroeste 0 963.7 -0.8 22
2019-08-12 16:00:00 27.1 22 Noroeste 39 Noroeste 0 964.1 -1 23
2019-08-12 15:00:00 26.6 19 Noroeste 35 Norte 0 964.3 -1.1 24
2019-08-12 14:00:00 25.8 15 Noroeste 33 Noroeste 0 964.5 -0.7 26
2019-08-12 13:00:00 24.4 21 Noroeste 38 Noroeste 0 965.1 0.1 30
2019-08-12 12:00:00 23.6 19 Noroeste 36 Noroeste 0 965.4 0.7 33
2019-08-12 11:00:00 22.8 13 Oeste 31 Oeste 0 965.2 0.9 37
2019-08-12 10:00:00 20.6 15 Oeste 27 Noroeste 0 965 1.4 44
2019-08-12 09:00:00 18.4 13 Oeste 22 Oeste 0 964.7 1.6 52
2019-08-12 08:00:00 17.6 7 Oeste 13 Oeste 0 964.3 1.7 56
2019-08-12 07:00:00 17 4 Oeste 12 Oeste 0 963.6 0.6 59
2019-08-12 06:00:00 17.6 7 Oeste 16 Oeste 0 963.1 0 58
2019-08-12 05:00:00 18.4 8 Oeste 20 Sudoeste 0 962.6 -0.7 54
2019-08-12 04:00:00 18.9 10 Sudoeste 21 Oeste 0 963 -0.1 52
2019-08-12 03:00:00 19.5 10 Sudoeste 17 Sudoeste 0 963.1 0.3 50
2019-08-12 02:00:00 20.7 11 Oeste 27 Oeste 0 963.3 1.4 46
2019-08-12 01:00:00 21.7 11 Oeste 21 Oeste 0 963.1 2.4 43
2019-08-12 00:00:00 22.9 9 Noroeste 37 Noroeste 0 962.8 3.4 41
2019-08-11 23:00:00 24.7 12 Noroeste 32 Noroeste 0 961.9 2.7 36
2019-08-11 22:00:00 26.4 19 Noroeste 34 Noroeste 0 960.7 1.7 31
2019-08-11 21:00:00 29.6 8 Noroeste 14 Norte 0 959.4 0 27
2019-08-11 20:00:00 31.1 6 Norte 13 Norte 0 959.2 -0.7 25
2019-08-11 19:00:00 31.5 8 Norte 19 Noroeste 0 959 -1.3 25
2019-08-11 18:00:00 31 6 Norte 21 Noroeste 0 959.4 -0.9 27
2019-08-11 17:00:00 30.5 9 Nordeste 23 Norte 0 959.9 -1 29
2019-08-11 16:00:00 30.3 12 Norte 32 Noroeste 0 960.3 -1.3 29
2019-08-11 15:00:00 29.3 17 Noroeste 32 Norte 0 960.3 -1.7 32
2019-08-11 14:00:00 28.9 18 Noroeste 30 Noroeste 0 960.9 -1.5 33
2019-08-11 13:00:00 27.3 12 Norte 26 Norte 0 961.6 -1.3 37
2019-08-11 12:00:00 26.9 8 Noroeste 18 Noroeste 0 962 -0.5 39
2019-08-11 11:00:00 23.7 8 Noroeste 23 Norte 0 962.4 0.9 47
2019-08-11 10:00:00 22.2 14 Noroeste 23 Norte 0 962.9 1.8 51
2019-08-11 09:00:00 21.4 9 Noroeste 14 Noroeste 0 962.5 1.1 54
2019-08-11 08:00:00 19.4 2 Noroeste 8 Oeste 0 961.5 0.3 64
2019-08-11 07:00:00 19.2 4 Noroeste 6 Noroeste 0 961.1 -0.1 64
2019-08-11 06:00:00 20 0 Calma 12 Nordeste 0 961.4 -0.1 62
2019-08-11 05:00:00 21.3 5 Nordeste 11 Nordeste 0 961.2 -0.7 57
2019-08-11 04:00:00 23.2 2 Nordeste 10 Noroeste 0 961.2 -0.8 50
2019-08-11 03:00:00 24.2 4 Noroeste 7 Oeste 0 961.5 -0.5 60
2019-08-11 02:00:00 25.3 4 Sudoeste 22 Sur 0 961.9 -0.1 57
2019-08-11 01:00:00 25.9 9 Sur 22 Sur 0 962 0.5 55
2019-08-11 00:00:00 26.7 11 Sur 23 Sudeste 0 962 0.9 54
2019-08-10 23:00:00 27.7 14 Sudeste 25 Sur 0 962 1.4 51
2019-08-10 22:00:00 28.8 12 Sur 23 Sudeste 0 961.5 0.5 47
2019-08-10 21:00:00 30.6 13 Sur 22 Sur 0 961.1 -0.4 42
2019-08-10 20:00:00 33.1 15 Noroeste 37 Norte 0 960.6 -1.3 24
2019-08-10 19:00:00 33.9 13 Norte 30 Norte 0 961 -1.6 24
2019-08-10 18:00:00 33.7 13 Norte 27 Norte 0 961.5 -1.8 23
2019-08-10 17:00:00 33.4 13 Norte 28 Norte 0 961.9 -2.1 23
2019-08-10 16:00:00 32.5 12 Norte 31 Nordeste 0 962.6 -2.2 24
2019-08-10 15:00:00 31.6 10 Norte 24 Norte 0 963.3 -2 26
2019-08-10 14:00:00 30.7 8 Nordeste 21 Norte 0 964 -1.5 27
2019-08-10 13:00:00 29.9 7 Norte 19 Norte 0 964.8 -0.6 28
2019-08-10 12:00:00 28 13 Norte 24 Norte 0 965.3 -0.1 32
2019-08-10 11:00:00 27 9 Norte 17 Norte 0 965.5 0.7 34
2019-08-10 10:00:00 25.1 3 Nordeste 10 Nordeste 0 965.4 1.2 42
2019-08-10 09:00:00 23 3 Noroeste 8 Norte 0 965.4 1.9 49
2019-08-10 08:00:00 20.8 2 Noroeste 8 Oeste 0 964.8 1.6 57
2019-08-10 07:00:00 20.4 2 Sudoeste 6 Sudoeste 0 964.2 1.3 58
2019-08-10 06:00:00 20.9 5 Oeste 8 Oeste 0 963.5 0.7 63
2019-08-10 05:00:00 21.7 6 Oeste 9 Oeste 0 963.2 0.3 65
2019-08-10 04:00:00 22.7 3 Este 9 Sudeste 0 962.9 0 60
2019-08-10 03:00:00 23.3 2 Este 7 Sudeste 0 962.8 0.4 61
2019-08-10 02:00:00 24 3 Este 11 Noroeste 0 962.9 2.4 60
2019-08-10 01:00:00 25.7 9 Norte 33 Noroeste 0 962.9 3.9 55
2019-08-10 00:00:00 28.1 19 Norte 39 Noroeste 0 962.4 4.5 44
2019-08-09 23:00:00 32.5 9 Noroeste 25 Sudoeste 0 960.5 3.3 23
2019-08-09 22:00:00 34 17 Oeste 37 Oeste 0 959 2 20
2019-08-09 21:00:00 35.9 14 Oeste 36 Oeste 0 957.9 0.8 16
2019-08-09 20:00:00 38.9 14 Oeste 32 Oeste 0 957.2 -0.4 13
2019-08-09 19:00:00 39.9 15 Oeste 30 Noroeste 0 957 -1.2 12
2019-08-09 18:00:00 40.6 10 Noroeste 30 Oeste 0 957.1 -1.6 11
2019-08-09 17:00:00 41.1 9 Sudoeste 32 Oeste 0 957.6 -1.6 10
2019-08-09 16:00:00 39.7 13 Norte 30 Oeste 0 958.2 -1.3 11
2019-08-09 15:00:00 40 6 Sur 21 Oeste 0 958.7 -1.1 12
2019-08-09 14:00:00 37.6 6 Noroeste 20 Norte 0 959.2 -0.7 14
2019-08-09 13:00:00 37.8 6 Sudeste 18 Norte 0 959.5 -0.5 14
2019-08-09 12:00:00 35.6 5 Nordeste 16 Nordeste 0 959.8 0 18
2019-08-09 11:00:00 34.4 4 Este 15 Sudoeste 0 959.9 0.2 20
2019-08-09 10:00:00 31.1 6 Sudoeste 16 Sudoeste 0 960 0.7 25
2019-08-09 09:00:00 27.6 12 Sudoeste 23 Sur 0 959.8 0.6 31
2019-08-09 08:00:00 25.4 16 Sudoeste 24 Sudoeste 0 959.7 0.3 36
2019-08-09 07:00:00 24.9 5 Oeste 15 Sur 0 959.3 0.1 38
2019-08-09 06:00:00 26.2 9 Sur 15 Sur 0 959.2 0.2 35
2019-08-09 05:00:00 26.4 11 Sur 20 Sudoeste 0 959.4 0.5 36
2019-08-09 04:00:00 27 12 Sudoeste 19 Sudoeste 0 959.2 0.4 34
2019-08-09 03:00:00 27 13 Sudoeste 19 Sudoeste 0 959 0.3 35
2019-08-09 02:00:00 27.8 10 Sudoeste 19 Sudoeste 0 958.9 0.4 33
2019-08-09 01:00:00 28 10 Sudoeste 19 Sur 0 958.8 0.8 33
2019-08-09 00:00:00 28.7 12 Sur 25 Sur 0 958.7 1.6 33
2019-08-08 23:00:00 29.5 13 Sur 27 Sur 0 958.5 1.6 32
2019-08-08 22:00:00 30.6 9 Sur 27 Sudeste 0 958 1 30
2019-08-08 21:00:00 32.5 17 Sudeste 28 Sudeste 0 957.1 -0.3 27
2019-08-08 20:00:00 34.9 13 Sudeste 26 Sudeste 0 956.9 -0.7 24
2019-08-08 19:00:00 36.7 6 Nordeste 22 Este 0 957 -1 18
2019-08-08 18:00:00 37.1 11 Nordeste 23 Este 0 957.4 -1.5 17
2019-08-08 17:00:00 36.2 10 Norte 27 Norte 0 957.6 -1.9 18
2019-08-08 16:00:00 35.5 13 Norte 25 Noroeste 0 958 -2.1 19
2019-08-08 15:00:00 35.4 4 Oeste 18 Norte 0 958.9 -1.8 19
2019-08-08 14:00:00 34.1 7 Nordeste 19 Nordeste 0 959.5 -1.3 21
2019-08-08 13:00:00 32.7 7 Norte 21 Norte 0 960.1 -0.7 23
2019-08-08 12:00:00 31 6 Noroeste 19 Norte 0 960.7 0.2 25
2019-08-08 11:00:00 30.4 8 Oeste 20 Oeste 0 960.8 0.4 26
2019-08-08 10:00:00 28.5 11 Sudoeste 23 Sudoeste 0 960.8 0.5 31
2019-08-08 09:00:00 25.7 9 Oeste 19 Sudoeste 0 960.5 0.5 37
2019-08-08 08:00:00 24 11 Sudoeste 19 Sudoeste 0 960.4 0.5 39
2019-08-08 07:00:00 23.2 9 Sudoeste 20 Sudoeste 0 960.3 0.8 40
2019-08-08 06:00:00 22.3 9 Sudoeste 20 Sudoeste 0 960 0.6 40
2019-08-08 05:00:00 22.3 8 Sur 15 Oeste 0 959.9 0.4 41
2019-08-08 04:00:00 24.5 12 Oeste -- -- 0 959.5 0.3 35
2019-08-08 03:00:00 25 10 Oeste 19 Sudoeste 0 959.4 0.5 36
2019-08-08 02:00:00 26.3 13 Sudoeste 23 Sudoeste 0 959.5 0.6 31
2019-08-08 01:00:00 25.8 11 Sudoeste 17 Sudoeste 0 959.2 0.5 39
2019-08-08 00:00:00 25.4 5 Sudoeste 8 Oeste 0 958.9 0.7 39
2019-08-07 23:00:00 25.8 0 Calma 9 Sudoeste 0 958.9 0.8 38
2019-08-07 22:00:00 26 4 Sudoeste 7 Oeste 0 958.7 0.1 38
2019-08-07 21:00:00 27.8 3 Sur 8 Sudoeste 0 958.2 -0.3 33
2019-08-07 20:00:00 28.8 3 Este 7 Nordeste 0 958.1 0.1 31
2019-08-07 19:00:00 29.6 3 Este 10 Nordeste 0 958.6 -0.2 30
2019-08-07 18:00:00 29.5 3 Este 9 Nordeste 0 958.5 -0.5 30
2019-08-07 17:00:00 29.5 6 Este 10 Este 0 958 -1.1 31
2019-08-07 16:00:00 29.7 5 Sur 10 Nordeste 0 958.8 -0.3 33
2019-08-07 15:00:00 28.3 4 Norte 13 Nordeste 0 959 -0.1 38
2019-08-07 14:00:00 28.2 4 Este 11 Este 0 959.1 0.1 38
2019-08-07 13:00:00 28.2 5 Este 11 Nordeste 0 959.1 0.2 39
2019-08-07 12:00:00 28.1 3 Nordeste 15 Este 0 959.1 0.9 39
2019-08-07 11:00:00 27.7 3 Este 14 Noroeste 0 959 1.7 39
2019-08-07 10:00:00 24.8 4 Nordeste 14 Norte 0 958.9 1.9 48
2019-08-07 09:00:00 22.9 5 Norte 10 Nordeste 0 958.2 1.4 57
2019-08-07 08:00:00 21.9 2 Norte 6 Este 0 957.3 0.2 61
2019-08-07 07:00:00 21.7 3 Sudeste 9 Este 0 957 0.1 62
2019-08-07 06:00:00 22.3 3 Este 9 Este 0 956.8 0.4 60
2019-08-07 05:00:00 23.4 5 Noroeste 17 Noroeste 0 957.1 1.3 57
2019-08-07 04:00:00 24.3 3 Nordeste 19 Noroeste 0 956.9 0.8 60
2019-08-07 03:00:00 28.1 8 Oeste 22 Sudoeste 0 956.4 0.5 21
2019-08-07 02:00:00 28.6 13 Sur -- -- 0 955.8 -0.3 28
2019-08-07 01:00:00 27.8 12 Sur -- -- 0 956.1 0.3 42
2019-08-07 00:00:00 28.7 14 Sur 28 Sur 0 955.9 0.3 45
2019-08-06 23:00:00 29.6 5 Sur 24 Sudeste 0 956.1 0.6 43
2019-08-06 22:00:00 30.9 12 Sur 26 Sudeste 0 955.8 0 38
2019-08-06 21:00:00 32.5 11 Sudeste 22 Sudeste 0 955.6 -0.9 30
2019-08-06 20:00:00 34.8 9 Este 21 Este 0 955.5 -1.3 24
2019-08-06 19:00:00 36.4 5 Nordeste 17 Nordeste 0 955.8 -1.8 17
2019-08-06 18:00:00 35.5 9 Norte 21 Norte 0 956.5 -1.7 17
2019-08-06 17:00:00 35 8 Nordeste 23 Nordeste 0 956.8 -1.9 19
2019-08-06 16:00:00 36 8 Nordeste 21 Norte 0 957.6 -2.2 22
2019-08-06 15:00:00 34.8 11 Norte 20 Norte 0 958.2 -2.2 24
2019-08-06 14:00:00 32.5 7 Nordeste 15 Norte 0 958.7 -1.7 32
2019-08-06 13:00:00 31 5 Oeste 22 Norte 0 959.8 -0.3 37
2019-08-06 12:00:00 28.1 9 Norte 20 Norte 0 960.4 0.5 44
2019-08-06 11:00:00 27.3 9 Norte 18 Norte 0 960.4 0.6 45
2019-08-06 10:00:00 25.6 4 Nordeste 9 Nordeste 0 960.1 0.3 50
2019-08-06 09:00:00 23.5 6 Sudoeste 13 Sudoeste 0 959.9 0.2 57
2019-08-06 08:00:00 21 4 Oeste 7 Este 0 959.8 0.1 70
2019-08-06 07:00:00 20.8 5 Sudeste 11 Oeste 0 959.8 0.4 70
2019-08-06 06:00:00 21.9 7 Noroeste 11 Noroeste 0 959.7 0.8 65
2019-08-06 05:00:00 22.4 3 Noroeste 13 Oeste 0 959.7 0.8 61
2019-08-06 04:00:00 23.4 -- -- -- -- 0 959.4 0.6 57
2019-08-06 03:00:00 25.1 9 Sudoeste -- -- 0 958.9 0.3 49
2019-08-06 02:00:00 26.3 -- -- -- -- 0 958.9 0.1 46
2019-08-06 01:00:00 26.9 10 Sur -- -- 0 958.8 0.6 46
2019-08-06 00:00:00 27.1 12 Sur 25 Sur 0 958.6 1 47
2019-08-05 23:00:00 28.1 10 Sudeste 23 Sudeste 0 958.8 1.5 43
2019-08-05 22:00:00 29.9 9 Sur 24 Sudeste 0 958.2 0.9 36
2019-08-05 21:00:00 31.9 16 Sudeste 31 Sudeste 0 957.6 0 30
2019-08-05 20:00:00 34.1 15 Sudeste 30 Sudeste 0 957.3 -1.1 25
2019-08-05 19:00:00 34.7 17 Sur 34 Norte 0 957.3 -1.9 27
2019-08-05 18:00:00 35.8 20 Norte 34 Norte 0 957.6 -2.3 27
2019-08-05 17:00:00 35.5 15 Norte 29 Norte 0 958.4 -2.4 25
2019-08-05 16:00:00 34.8 14 Norte 27 Norte 0 959.2 -2.4 25
2019-08-05 15:00:00 33.3 10 Nordeste 22 Nordeste 0 959.9 -2.2 30
2019-08-05 14:00:00 31.1 7 Norte 18 Norte 0 960.8 -1.5 36
2019-08-05 13:00:00 29.9 5 Nordeste 17 Norte 0 961.6 -0.9 39
2019-08-05 12:00:00 27.5 8 Norte 15 Norte 0 962.1 -0.4 44
2019-08-05 11:00:00 26.1 7 Norte 15 Nordeste 0 962.3 -0.2 48
2019-08-05 10:00:00 24.4 4 Nordeste 12 Norte 0 962.5 0.4 55
2019-08-05 09:00:00 22.4 3 Norte 6 Norte 0 962.5 0.8 62
2019-08-05 08:00:00 20.6 3 Sur 6 Sur 0 962.5 0.9 74
2019-08-05 07:00:00 20 4 Oeste 6 Oeste 0 962.1 0.6 76
2019-08-05 06:00:00 20.8 3 Este 6 Norte 0 961.7 0.4 70
2019-08-05 05:00:00 22.1 3 Noroeste -- -- 0 961.6 0.9 65
2019-08-05 04:00:00 23.4 8 Oeste 24 Oeste 0 961.5 1.5 67
2019-08-05 03:00:00 25.6 7 Sudoeste 24 Sudoeste 0 961.3 1.5 52
2019-08-05 02:00:00 26 13 Sur 29 Sur 0 960.7 0.9 44
2019-08-05 01:00:00 26.4 15 Sur 28 Sur 0 960 0.8 49
2019-08-05 00:00:00 27.2 17 Sur 31 Sur 0 959.8 1 47
2019-08-04 23:00:00 27.9 9 Sudeste 24 Sudeste 0 959.8 1 45
2019-08-04 22:00:00 28.8 12 Sudeste 27 Sudeste 0 959.2 0.7 42
2019-08-04 21:00:00 30.7 9 Sudeste 28 Sudeste 0 958.8 0.9 35
2019-08-04 20:00:00 32.9 13 Sudeste 32 Norte 0 958.8 0.4 31
2019-08-04 19:00:00 32.1 13 Nordeste 30 Sudeste 0 958.5 -0.6 39
2019-08-04 18:00:00 35.4 13 Sudeste 23 Sudeste 0 957.9 -1.8 27
2019-08-04 17:00:00 36.2 12 Este 24 Sudeste 0 958.4 -1.9 25
2019-08-04 16:00:00 35.8 10 Norte 21 Norte 0 959.1 -1.9 24
2019-08-04 15:00:00 34.5 10 Norte 19 Nordeste 0 959.7 -1.5 25
2019-08-04 14:00:00 32.3 9 Nordeste 19 Norte 0 960.3 -1.2 31
2019-08-04 13:00:00 31 6 Nordeste 17 Norte 0 961 -0.6 34
2019-08-04 12:00:00 29.4 8 Norte 14 Norte 0 961.2 -0.2 41
2019-08-04 11:00:00 28 6 Norte 13 Norte 0 961.5 0.4 46
2019-08-04 10:00:00 25.5 5 Norte 9 Norte 0 961.6 0.8 52
2019-08-04 09:00:00 23 2 Noroeste 6 Sudoeste 0 961.4 1.1 60
2019-08-04 08:00:00 20.4 5 Sudoeste 7 Sudoeste 0 961.1 1.1 77
2019-08-04 07:00:00 19.4 3 Oeste 6 Sudoeste 0 960.8 1 72
2019-08-04 06:00:00 20.1 0 Calma 6 Oeste 0 960.3 0.7 64
2019-08-04 05:00:00 21 4 Noroeste 8 Sudeste 0 960 0.7 61
2019-08-04 04:00:00 22.3 4 Este 6 Nordeste 0 959.8 0.5 54
2019-08-04 03:00:00 24 4 Noroeste 13 Norte 0 959.6 0.9 47
2019-08-04 02:00:00 24.9 5 Sudoeste 10 Sur 0 959.3 0.8 43
2019-08-04 01:00:00 26.2 3 Sur 23 Sur 0 959.3 1.2 40
2019-08-04 00:00:00 27 14 Sur 31 Sur 0 958.7 0.9 40
2019-08-03 23:00:00 27.3 16 Sur 33 Sur 0 958.5 1 39
2019-08-03 22:00:00 28.5 19 Sur 34 Sur 0 958.1 1.1 39
2019-08-03 21:00:00 29.7 13 Sudeste 36 Sur 0 957.8 0.3 37
2019-08-03 20:00:00 30.8 5 Este 31 Sur 0 957.5 -0.5 43
2019-08-03 19:00:00 32.6 16 Sudeste 32 Sudeste 0 957 -1.9 32
2019-08-03 18:00:00 35.5 15 Sudeste 27 Sur 0 957.5 -2.2 25
2019-08-03 17:00:00 37.3 8 Este 22 Norte 0 958 -2.5 22
2019-08-03 16:00:00 35.8 12 Norte 24 Nordeste 0 958.9 -2.4 22
2019-08-03 15:00:00 34.6 13 Norte 27 Norte 0 959.7 -2.1 24
2019-08-03 14:00:00 33.1 10 Norte 23 Nordeste 0 960.5 -1.5 25
2019-08-03 13:00:00 31.3 9 Norte 20 Nordeste 0 961.3 -0.9 27
2019-08-03 12:00:00 29.9 5 Nordeste 13 Norte 0 961.8 -0.6 28
2019-08-03 11:00:00 27.7 6 Norte 12 Norte 0 962 -0.2 32
2019-08-03 10:00:00 25.3 3 Norte 8 Sudeste 0 962.2 0.3 37
2019-08-03 09:00:00 23 3 Sur 13 Sudoeste 0 962.4 0.7 44
2019-08-03 08:00:00 20.7 8 Sudoeste 13 Sudoeste 0 962.2 0.3 47
2019-08-03 07:00:00 19.8 5 Oeste 10 Oeste 0 961.9 0.1 52
2019-08-03 06:00:00 20.5 6 Oeste 9 Oeste 0 961.7 -0.3 50
2019-08-03 05:00:00 20.9 5 Oeste -- -- 0 961.9 0 47
2019-08-03 04:00:00 22.7 8 Oeste -- -- 0 961.8 0 42
2019-08-03 03:00:00 23.9 7 Sudoeste 13 Sudoeste 0 962 0.3 43
2019-08-03 02:00:00 25 9 Sudoeste 22 Sudoeste 0 961.9 0.6 40
2019-08-03 01:00:00 26 7 Sur 19 Sur 0 961.8 1.1 37
2019-08-03 00:00:00 26.9 9 Sur 21 Sur 0 961.7 1.5 34
2019-08-02 23:00:00 27.8 8 Sur 21 Sur 0 961.3 1.1 33
2019-08-02 22:00:00 29.1 8 Sur 13 Sudeste 0 960.7 0.6 30
2019-08-02 21:00:00 31.7 3 Nordeste 14 Nordeste 0 960.2 -0.2 23
2019-08-02 20:00:00 33.5 5 Nordeste 16 Norte 0 960.2 -0.7 22
2019-08-02 19:00:00 34 7 Nordeste 26 Norte 0 960.1 -1.4 22
2019-08-02 18:00:00 33.6 7 Norte 19 Norte 0 960.4 -1.5 24
2019-08-02 17:00:00 32.6 10 Norte 20 Norte 0 960.9 -1.4 26
2019-08-02 16:00:00 32.7 6 Norte 23 Norte 0 961.5 -1.2 26
2019-08-02 15:00:00 31.6 9 Nordeste 20 Nordeste 0 961.9 -1.1 28
2019-08-02 14:00:00 30.3 6 Nordeste 26 Nordeste 0 962.3 -0.8 32
2019-08-02 13:00:00 28.1 9 Norte 18 Noroeste 0 962.7 -0.4 38
2019-08-02 12:00:00 26.7 8 Norte 22 Noroeste 0 963 0.1 42
2019-08-02 11:00:00 25.6 7 Norte 18 Noroeste 0 963.1 0.7 45
2019-08-02 10:00:00 23.6 7 Noroeste 17 Oeste 0 963.1 0.9 53
2019-08-02 09:00:00 21.8 5 Oeste 13 Sudoeste 0 962.9 0.8 60
2019-08-02 08:00:00 20.5 7 Sudoeste 14 Sudoeste 0 962.4 0.3 68
2019-08-02 07:00:00 19.8 7 Sudoeste 13 Sudoeste 0 962.2 0.2 71
2019-08-02 06:00:00 20.3 8 Oeste 14 Oeste 0 962.1 0.2 68
2019-08-02 05:00:00 21 6 Oeste 15 Oeste 0 962.1 0.5 64
2019-08-02 04:00:00 21.7 8 Oeste 15 Oeste 0 962 0.9 62
2019-08-02 03:00:00 22.7 7 Oeste 18 Noroeste 0 961.9 1.8 58
2019-08-02 02:00:00 23.7 7 Noroeste 14 Noroeste 0 961.6 2.1 51
2019-08-02 01:00:00 24.7 5 Oeste 20 Oeste 0 961.1 2.6 37
2019-08-02 00:00:00 26 3 Sur 17 Sudoeste 0 960.1 2.3 43
2019-08-01 23:00:00 27.3 10 Sur 19 Sur 0 959.5 2.1 40
2019-08-01 22:00:00 28.6 4 Norte 13 Este 0 958.5 1.4 32
2019-08-01 21:00:00 30.3 8 Este 20 Este 0 957.8 0.2 30
2019-08-01 20:00:00 32.7 11 Este 25 Nordeste 0 957.4 -0.5 25
2019-08-01 19:00:00 33.7 10 Nordeste 26 Nordeste 0 957.1 -1.6 24
2019-08-01 18:00:00 33.6 13 Nordeste 26 Norte 0 957.6 -1.4 23
2019-08-01 17:00:00 33.4 12 Norte 26 Norte 0 957.9 -1.7 23
2019-08-01 16:00:00 32.4 13 Norte 31 Norte 0 958.7 -1.4 26
2019-08-01 15:00:00 32 13 Norte 28 Norte 0 959 -1.4 27
2019-08-01 14:00:00 30.5 11 Norte 23 Norte 0 959.6 -1 31
2019-08-01 13:00:00 29.5 11 Norte 23 Norte 0 960.1 -0.3 34
2019-08-01 12:00:00 27.7 10 Norte 23 Norte 0 960.4 0.2 39
2019-08-01 11:00:00 26.7 9 Norte 18 Norte 0 960.6 0.3 41
2019-08-01 10:00:00 24.9 6 Norte 14 Norte 0 960.4 0.4 45
2019-08-01 09:00:00 23.2 8 Sudeste 18 Sur 0 960.2 0.2 53
2019-08-01 08:00:00 21.6 8 Sudeste 23 Este 0 960.3 0.3 59
2019-08-01 07:00:00 21.1 12 Sudeste 22 Este 0 960 -0.4 62
2019-08-01 06:00:00 21.6 9 Sudeste 31 Sudeste 0 960 -0.5 60
2019-08-01 05:00:00 22.3 11 Sudeste 27 Sudeste 0 960 -0.8 56
2019-08-01 04:00:00 22.1 12 Sudeste 20 Sudeste 0 960.4 -0.8 59
2019-08-01 03:00:00 22.1 6 Nordeste 30 Sur 0 960.5 -1 61
2019-08-01 02:00:00 22.4 13 Sur 28 Sur 0 960.8 -0.7 63
2019-08-01 01:00:00 22.8 3 Sudeste 15 Sudeste 0 961.2 0.3 62
2019-08-01 00:00:00 23.5 8 Sudeste 16 Sudeste 0 961.5 1 59
2019-07-31 23:00:00 24.2 4 Sudeste 17 Sudeste 0 961.5 1.2 57
2019-07-31 22:00:00 25 7 Sur 27 Sur 0 960.9 0.4 53
2019-07-31 21:00:00 26.3 10 Sudeste 33 Sudeste 0 960.5 -0.2 49
2019-07-31 20:00:00 27.2 23 Sudeste 41 Sudeste 0 960.3 -0.8 45
2019-07-31 19:00:00 29.1 23 Sudeste 37 Sudeste 0 960.5 -1.1 39
2019-07-31 18:00:00 30.2 20 Sudeste 36 Este 0 960.7 -1.8 35
2019-07-31 17:00:00 31.6 13 Sudeste 26 Sudeste 0 961.1 -2.5 30
2019-07-31 16:00:00 31.2 10 Este 30 Norte 0 961.6 -2.7 26
2019-07-31 15:00:00 28.3 14 Norte 26 Norte 0 962.5 -2.6 25
2019-07-31 14:00:00 26.7 11 Norte 20 Nordeste 0 963.6 -1.9 27
2019-07-31 13:00:00 24.9 9 Nordeste 21 Norte 0 964.3 -1.2 30
2019-07-31 12:00:00 24 5 Nordeste 12 Norte 0 965.1 -0.8 29
2019-07-31 11:00:00 22.3 5 Este 14 Norte 0 965.5 -0.5 33
2019-07-31 10:00:00 19 6 Nordeste 14 Nordeste 0 965.5 -0.4 42
2019-07-31 09:00:00 18.1 4 Noroeste 15 Sudoeste 0 965.9 0.2 44
2019-07-31 08:00:00 16.8 10 Sudoeste 17 Sudoeste 0 966 0.5 47
2019-07-31 07:00:00 15.8 8 Oeste 13 Sudoeste 0 965.9 0.6 50
2019-07-31 06:00:00 15.7 8 Sudoeste 13 Oeste 0 965.7 0.3 50
2019-07-31 05:00:00 16.5 8 Sudoeste 18 Sudoeste 0 965.5 -0.1 47
2019-07-31 04:00:00 17.1 10 Oeste 18 Oeste 0 965.3 -0.3 45
2019-07-31 03:00:00 17.6 8 Oeste 17 Sudoeste 0 965.4 0.1 44
2019-07-31 02:00:00 18.3 8 Oeste 17 Oeste 0 965.6 1 43
2019-07-31 01:00:00 19.4 8 Noroeste 14 Oeste 0 965.6 1.8 41
2019-07-31 00:00:00 20.7 4 Oeste 25 Noroeste 0 965.3 2.5 38
2019-07-30 23:00:00 22.2 14 Noroeste 24 Noroeste 0 964.6 2.5 34
2019-07-30 22:00:00 23.5 10 Noroeste 27 Noroeste 0 963.8 1.9 30
2019-07-30 21:00:00 25.4 15 Noroeste 31 Noroeste 0 962.8 0.7 26
2019-07-30 20:00:00 27.3 16 Noroeste 26 Noroeste 0 962.1 -0.1 24
2019-07-30 19:00:00 28.3 15 Noroeste 31 Norte 0 961.9 -0.7 23
2019-07-30 18:00:00 28.5 14 Noroeste 32 Norte 0 962.1 -0.9 23
2019-07-30 17:00:00 28.6 12 Norte 27 Norte 0 962.2 -1.2 23
2019-07-30 16:00:00 28.5 10 Noroeste 28 Norte 0 962.6 -1.3 24
2019-07-30 15:00:00 27.4 15 Noroeste 32 Norte 0 963 -1.1 26
2019-07-30 14:00:00 26.7 14 Norte 27 Norte 0 963.4 -0.7 28
2019-07-30 13:00:00 25.6 13 Noroeste 30 Norte 0 963.9 -0.2 30
2019-07-30 12:00:00 24.8 12 Noroeste 27 Noroeste 0 964.1 0.5 33
2019-07-30 11:00:00 23.3 16 Noroeste 31 Oeste 0 964.1 1.1 38
2019-07-30 10:00:00 21 15 Oeste 31 Oeste 0 964.1 1.5 47
2019-07-30 09:00:00 19.3 17 Oeste 31 Oeste 0 963.6 1.6 54
2019-07-30 08:00:00 17.9 14 Sudoeste 27 Sudoeste 0 963 1.5 59
2019-07-30 07:00:00 17.4 14 Sudoeste 26 Sudoeste 0 962.6 1.5 62
2019-07-30 06:00:00 17.8 13 Sudoeste 22 Sudoeste 0 962 1.3 60
2019-07-30 05:00:00 18.5 9 Sudoeste 20 Oeste 0 961.5 1.5 59
2019-07-30 04:00:00 19.4 10 Oeste 21 Oeste 0 961.1 2.2 57
2019-07-30 03:00:00 20.7 15 Oeste 24 Oeste 0 960.7 4.1 53
2019-07-30 02:00:00 22.3 12 Oeste 27 Oeste 0 960 3.4 49
2019-07-30 01:00:00 24.8 19 Noroeste 36 Oeste 0 958.9 3 42
2019-07-30 00:00:00 26.3 16 Sur 33 Sur 0 956.6 1.1 39
2019-07-29 23:00:00 26.7 15 Sur 40 Sur 0 956.6 1.3 42
2019-07-29 22:00:00 27.9 23 Sur 42 Sudeste 0 955.9 0.8 40
2019-07-29 21:00:00 30 19 Sudeste 27 Sudeste 0 955.5 0.1 34
2019-07-29 20:00:00 31.7 17 Sudeste 26 Sudeste 0 955.3 -0.6 32
2019-07-29 19:00:00 33.5 17 Este 28 Este 0 955.1 -1.2 27
2019-07-29 18:00:00 34 13 Norte 26 Norte 0 955.4 -1.3 14
2019-07-29 17:00:00 34.1 11 Norte 30 Norte 0 955.9 -1.3 14
2019-07-29 16:00:00 33.5 9 Nordeste 23 Norte 0 956.3 -1.5 15
2019-07-29 15:00:00 33.1 8 Nordeste 22 Norte 0 956.7 -1.3 18
2019-07-29 14:00:00 31.7 12 Norte 22 Norte 0 957.2 -1 19
2019-07-29 13:00:00 30.1 8 Nordeste 19 Norte 0 957.8 -0.6 24
2019-07-29 12:00:00 28.6 5 Nordeste 12 Este 0 958 -0.3 26
2019-07-29 11:00:00 26.4 4 Noroeste 10 Norte 0 958.2 0.3 30
2019-07-29 10:00:00 23.4 5 Norte 14 Sudoeste 0 958.4 0.7 37
2019-07-29 09:00:00 20.5 8 Sudoeste 14 Sudoeste 0 958.3 0.6 44
2019-07-29 08:00:00 17.6 9 Sudoeste 18 Sudoeste 0 957.9 0 53
2019-07-29 07:00:00 16.6 9 Sudoeste 18 Sudoeste 0 957.7 -0.3 56
2019-07-29 06:00:00 17.5 12 Sudoeste 17 Sudoeste 0 957.7 -0.6 52
2019-07-29 05:00:00 17.5 8 Sudoeste 18 Sudoeste 0 957.9 -0.5 52
2019-07-29 04:00:00 17.6 10 Sudoeste 15 Sudoeste 0 958 -0.4 52
2019-07-29 03:00:00 18 13 Sudoeste 17 Sudoeste 0 958.3 0.1 50
2019-07-29 02:00:00 18.3 5 Sudoeste 10 Sudoeste 0 958.4 0.3 49
2019-07-29 01:00:00 19.4 4 Sudoeste 9 Sudoeste 0 958.4 1 45
2019-07-29 00:00:00 20.3 3 Sudoeste 9 Oeste 0 958.2 1.2 42
2019-07-28 23:00:00 21.3 6 Oeste 9 Oeste 0 958.1 1.6 39
2019-07-28 22:00:00 23.7 3 Noroeste 11 Norte 0 957.4 1.2 33
2019-07-28 21:00:00 26.2 5 Norte 19 Norte 0 957 0.7 27
2019-07-28 20:00:00 27.8 11 Norte 24 Norte 0 956.5 -0.1 24
2019-07-28 19:00:00 28.1 14 Norte 27 Noroeste 0 956.2 -1.1 22
2019-07-28 18:00:00 28 12 Norte 32 Noroeste 0 956.3 -1.4 22
2019-07-28 17:00:00 27.7 18 Norte 33 Norte 0 956.6 -1.7 23
2019-07-28 16:00:00 27.7 14 Noroeste 31 Noroeste 0 957.3 -1.3 24
2019-07-28 15:00:00 27.2 15 Noroeste 29 Noroeste 0 957.7 -1.3 25
2019-07-28 14:00:00 25.8 17 Noroeste 33 Noroeste 0 958.3 -0.5 26
2019-07-28 13:00:00 24.6 18 Noroeste 36 Noroeste 0 958.6 -0.1 31
2019-07-28 12:00:00 23.4 22 Noroeste 42 Noroeste 0 959 0.7 34
2019-07-28 11:00:00 21.9 24 Noroeste 40 Noroeste 0 958.8 0.1 36
2019-07-28 10:00:00 20 25 Noroeste 38 Oeste 0 958.7 0 45
2019-07-28 09:00:00 18.1 19 Oeste 35 Oeste 0 958.3 0.2 51
2019-07-28 08:00:00 16.3 14 Oeste 26 Oeste 0 958.7 0.8 59
2019-07-28 07:00:00 15.2 11 Sudoeste 19 Sudoeste 0 958.7 1.1 62
2019-07-28 06:00:00 14.9 7 Sudoeste 14 Oeste 0 958.1 0.7 63
2019-07-28 05:00:00 16 12 Oeste 26 Oeste 0 957.9 0.5 59
2019-07-28 04:00:00 16.1 9 Oeste 32 Oeste 0 957.6 0.1 60
2019-07-28 03:00:00 16.5 12 Oeste 37 Oeste 0 957.4 0.1 60
2019-07-28 02:00:00 17.2 20 Oeste 44 Oeste 0 957.4 0.2 56
2019-07-28 01:00:00 17.6 19 Oeste 48 Noroeste 0 957.5 1.1 57
2019-07-28 00:00:00 18.1 22 Oeste 39 Oeste 0 957.3 2 54
2019-07-27 23:00:00 18.8 14 Oeste 30 Noroeste 0 957.2 3.1 54
2019-07-26 12:00:00 25.6 5 Norte 10 Norte 0 958.8 -0.6 56
2019-07-26 11:00:00 24.5 4 Oeste 15 Oeste 0.2 959.1 0.1 67
2019-07-26 10:00:00 24.8 5 Sudoeste 15 Oeste 0 959.3 1.4 65
2019-07-26 09:00:00 22.4 11 Noroeste 18 Noroeste 0.2 959.4 1.8 77
2019-07-26 08:00:00 22.9 7 Oeste 23 Noroeste 0 959 1.2 59
2019-07-26 07:00:00 23.2 9 Sudoeste 15 Sudoeste 0 957.9 0.3 34
2019-07-26 06:00:00 25.6 6 Sur 14 Sur 0 957.6 -0.3 28
2019-07-26 05:00:00 25.3 5 Sur 12 Norte 0 957.8 -0.8 30
2019-07-26 04:00:00 27.6 9 Sudeste 37 Sur 0 957.6 -0.9 25
2019-07-26 03:00:00 27.5 14 Sur 32 Sudoeste 0 957.9 -1 27
2019-07-26 02:00:00 27.9 12 Sur 41 Sudeste 0 958.6 0.1 26
2019-07-26 01:00:00 28.5 18 Sur 40 Sur 0 958.5 -0.6 27
2019-07-26 00:00:00 28.5 17 Sur 39 Sur 0 958.9 -0.2 29
2019-07-25 23:00:00 29.2 20 Sur 38 Sudeste 0 958.5 -0.3 29
2019-07-25 22:00:00 29.4 11 Sur 27 Sur 0 959.1 0.4 30
2019-07-25 21:00:00 29 11 Sur 19 Sudeste 0.2 959.1 -0.2 36
2019-07-25 20:00:00 29.9 9 Sudeste 18 Sudeste 0.6 958.8 0.6 40
2019-07-25 19:00:00 30.5 9 Este 43 Este 0 958.7 0.5 26
2019-07-25 18:00:00 30.5 15 Noroeste 37 Sur 0 959.3 0.7 27
2019-07-25 17:00:00 36.9 20 Sur 40 Sur 0 958.2 -1.2 18
2019-07-25 16:00:00 39.2 18 Sudeste 34 Sudeste 0 958.2 -1.8 12
2019-07-25 15:00:00 39.4 5 Nordeste 21 Norte 0 958.6 -1.9 16
2019-07-25 14:00:00 36.9 9 Norte 17 Nordeste 0 959.4 -1.3 17
2019-07-25 13:00:00 35.3 8 Norte 17 Nordeste 0 960 -0.8 21
2019-07-25 12:00:00 32.6 9 Norte 20 Norte 0 960.5 -0.4 25
2019-07-25 11:00:00 31.2 8 Norte 15 Norte 0 960.7 -0.2 25
2019-07-25 10:00:00 28.5 5 Norte 10 Norte 0 960.8 0.3 29
2019-07-25 09:00:00 25.1 0 Calma 7 Norte 0 960.9 0.6 33
2019-07-25 08:00:00 23.6 5 Noroeste 17 Sur 0 960.9 0.6 36
2019-07-25 07:00:00 24.8 9 Sur 15 Sur 0 960.5 0.2 27
2019-07-25 06:00:00 24.1 2 Sur 8 Oeste 0 960.3 0.1 29
2019-07-25 05:00:00 25.2 4 Oeste 10 Sur 0 960.3 0 26
2019-07-25 04:00:00 27.5 4 Sudoeste 22 Sudoeste 0 960.3 -0.2 23
2019-07-25 03:00:00 28.7 13 Sur 33 Sur 0 960.2 -0.5 21
2019-07-25 02:00:00 29 16 Sur 35 Sur 0 960.3 -0.3 22
2019-07-25 01:00:00 29.5 17 Sur 40 Sudeste 0 960.5 0.4 22
2019-07-25 00:00:00 30 20 Sur 45 Sudeste 0 960.7 1 23
2019-07-24 23:00:00 30.6 20 Sur 45 Sur 0 960.6 1.2 23
2019-07-24 22:00:00 31.9 21 Sur 40 Sudeste 0 960.1 0.6 19
2019-07-24 21:00:00 33.3 24 Sur 48 Sudeste 0 959.7 -0.1 18
2019-07-24 20:00:00 35.4 23 Sur 46 Sudeste 0 959.4 -0.8 14
2019-07-24 19:00:00 36.8 23 Sudeste 45 Sur 0 959.5 -0.8 13
2019-07-24 18:00:00 37.7 24 Sudeste 40 Sur 0 959.8 -1.1 13
2019-07-24 17:00:00 39.2 20 Sur 39 Sudeste 0 960.2 -1.3 11
2019-07-24 16:00:00 40.1 15 Sudeste 31 Sudeste 0 960.3 -1.8 8
2019-07-24 15:00:00 39.4 12 Nordeste 29 Norte 0 960.9 -1.6 12
2019-07-24 14:00:00 38.7 10 Nordeste 23 Norte 0 961.5 -1.4 12
2019-07-24 13:00:00 36.9 10 Norte 19 Nordeste 0 962.1 -0.8 14
2019-07-24 12:00:00 36.9 6 Nordeste 14 Nordeste 0 962.5 -0.6 14
2019-07-24 11:00:00 34.8 5 Sur 15 Sur 0 962.9 -0.1 15
2019-07-24 10:00:00 30.6 9 Sur 16 Sudoeste 0 962.9 0 21
2019-07-24 09:00:00 27.5 11 Sudoeste 20 Sudoeste 0 963.1 0.2 25
2019-07-24 08:00:00 25.3 12 Sudoeste 18 Sur 0 963 -0.1 29
2019-07-24 07:00:00 24.5 15 Sudoeste 24 Sudoeste 0 962.9 -0.4 29
2019-07-24 06:00:00 24.6 13 Sudoeste 24 Sudoeste 0 962.9 -0.5 29
2019-07-24 05:00:00 25.3 14 Sudoeste 22 Sudoeste 0 963.1 -0.3 27
2019-07-24 04:00:00 25.9 15 Sudoeste 24 Sudoeste 0 963.3 0.2 27
2019-07-24 03:00:00 25.2 6 Sur 14 Noroeste 0 963.4 0.8 30
2019-07-24 02:00:00 27.4 4 Sur 17 Sur 0 963.4 1 26
2019-07-24 01:00:00 29.3 7 Sur 30 Sur 0 963.1 1.2 23
2019-07-24 00:00:00 30.6 18 Sur 41 Sur 0 962.6 1 20
2019-07-23 23:00:00 31.2 24 Sur 39 Sudeste 0 962.4 1.1 20
2019-07-23 22:00:00 32.1 18 Sur 42 Sudeste 0 961.9 0.7 18
2019-07-23 21:00:00 33.7 24 Sudeste 46 Sudeste 0 961.6 0.1 14
2019-07-23 20:00:00 35.9 20 Sur 42 Sudeste 0 961.3 -0.6 14
2019-07-23 19:00:00 37.5 23 Sudeste 41 Sudeste 0 961.2 -1.1 12
2019-07-23 18:00:00 39 20 Sudeste 39 Sudeste 0 961.5 -1.2 10
2019-07-23 17:00:00 39.3 23 Sudeste 38 Sur 0 961.9 -1.7 11
2019-07-23 16:00:00 39.9 18 Sudeste 31 Sudeste 0 962.3 -2 10
2019-07-23 15:00:00 38.9 11 Nordeste 26 Norte 0 962.7 -2 12
2019-07-23 14:00:00 37.8 8 Nordeste 17 Nordeste 0 963.6 -1.6 13
2019-07-23 13:00:00 36.8 8 Nordeste 17 Nordeste 0 964.3 -1.1 14
2019-07-23 12:00:00 34.4 5 Norte 13 Norte 0 964.7 -0.5 15
2019-07-23 11:00:00 31.7 4 Norte 10 Nordeste 0 965.2 0.4 20
2019-07-23 10:00:00 28.2 2 Este 10 Norte 0 965.4 0.7 21
2019-07-23 09:00:00 25.9 5 Nordeste 20 Sudoeste 0 965.2 0.4 27
2019-07-23 08:00:00 24.2 16 Sudoeste 19 Sudoeste 0 964.8 -0.1 25
2019-07-23 07:00:00 23.7 10 Sudoeste 17 Sudoeste 0 964.7 -0.6 26
2019-07-23 06:00:00 24 13 Sudoeste 17 Sudoeste 0 964.8 -0.9 25
2019-07-23 05:00:00 24.5 10 Sudoeste 14 Sudoeste 0 964.9 -1.2 24
2019-07-23 04:00:00 24.8 3 Sudoeste 9 Sudoeste 0 965.3 -0.9 24
2019-07-23 03:00:00 24.9 2 Oeste 8 Oeste 0 965.7 -0.3 27
2019-07-23 02:00:00 25.3 4 Oeste 8 Norte 0 966.1 0.2 22
2019-07-23 01:00:00 26.6 3 Oeste 26 Sudoeste 0 966.2 0.8 20
2019-07-23 00:00:00 29.1 7 Sudoeste 24 Sudeste 0 966 1 15
2019-07-22 23:00:00 29.9 12 Sur 36 Sudeste 0 965.9 1.1 14
2019-07-22 22:00:00 30.7 19 Sudeste 40 Sur 0 965.4 0.7 15
2019-07-22 21:00:00 31.7 25 Sudeste 47 Sudeste 0 965 0.3 18
2019-07-22 20:00:00 33.8 22 Sudeste 48 Sur 0 964.8 -0.6 17
2019-07-22 19:00:00 35.7 23 Sur 45 Sur 0 964.7 -0.8 12
2019-07-22 18:00:00 37.9 19 Sudeste 42 Sudeste 0 964.7 -1.3 12
2019-07-22 17:00:00 36.8 18 Sudeste 42 Sudeste 0 965.4 -1.3 11
2019-07-22 16:00:00 37.7 17 Sudeste 35 Sudeste 0 965.5 -2 10
2019-07-22 15:00:00 39.3 12 Sudeste 24 Sudeste 0 966 -2 10
2019-07-22 14:00:00 36.1 9 Nordeste 18 Norte 0 966.7 -1.4 15
2019-07-22 13:00:00 34.1 9 Nordeste 19 Nordeste 0 967.5 -0.8 18
2019-07-22 12:00:00 32.3 8 Norte 15 Norte 0 968 -0.2 23
2019-07-22 11:00:00 31.8 4 Norte 11 Norte 0 968.1 0.1 18
2019-07-22 10:00:00 28.5 4 Oeste 9 Noroeste 0 968.3 0.6 17
2019-07-22 09:00:00 24.9 0 Calma 5 Oeste 0 968.2 0.7 23
2019-07-22 08:00:00 23.2 5 Oeste 11 Oeste 0 968 0.6 28
2019-07-22 07:00:00 23.1 6 Oeste 18 Sudoeste 0 967.7 0.1 27
2019-07-22 06:00:00 23.8 12 Sudoeste 19 Sudoeste 0 967.5 -0.2 26
2019-07-22 05:00:00 24.3 8 Sudoeste 16 Sudoeste 0 967.4 0.3 25
2019-07-22 04:00:00 23.9 3 Sudoeste 12 Sudeste 0 967.6 1.1 27
2019-07-22 03:00:00 26.2 6 Sur 28 Sudeste 0 967.7 1.6 22
2019-07-22 02:00:00 28.9 15 Sur 53 Sudeste 0 967.1 1.2 14
2019-07-22 01:00:00 28.8 27 Sur 57 Sur 0 966.5 1.6 18
2019-07-22 00:00:00 28.8 31 Sur 59 Sudeste 0 966.1 1.5 23
2019-07-21 23:00:00 28.9 27 Sur 58 Sur 0 965.9 1.5 31
2019-07-21 22:00:00 29.9 25 Sur 47 Sudeste 0 964.9 0.7 29
2019-07-21 21:00:00 31.2 22 Sur 44 Sudeste 0 964.6 0.1 27
2019-07-21 20:00:00 32.9 25 Sudeste 44 Sudeste 0 964.4 -0.3 24
2019-07-21 19:00:00 34.5 21 Sudeste 42 Sudeste 0 964.2 -0.8 20
2019-07-21 18:00:00 35.2 24 Sudeste 42 Sudeste 0 964.5 -0.9 20
2019-07-21 17:00:00 35.9 23 Sudeste 35 Sudeste 0 964.7 -1.3 20
2019-07-21 16:00:00 36.5 19 Sudeste 38 Sudeste 0 965 -1.7 20
2019-07-21 15:00:00 37 9 Sudeste 22 Sudeste 0 965.4 -1.6 17
2019-07-21 14:00:00 33.9 8 Noroeste 25 Norte 0 966 -1.1 27
2019-07-21 13:00:00 31.4 9 Norte 17 Norte 0 966.7 -0.8 31
2019-07-21 12:00:00 29.1 5 Norte 14 Norte 0 967 -0.3 37
2019-07-21 11:00:00 27.6 4 Norte 11 Este 0 967.1 0.2 43
2019-07-21 10:00:00 25.1 2 Sudeste 8 Noroeste 0 967.5 1.2 52
2019-07-21 09:00:00 22.9 5 Noroeste 12 Noroeste 0 967.3 1.7 60
2019-07-21 08:00:00 21.5 0 Calma 5 Oeste 0 966.9 1.5 65
2019-07-21 07:00:00 20.7 3 Oeste 7 Oeste 0 966.3 1.1 61
2019-07-21 06:00:00 22.2 6 Norte 14 Oeste 0 965.6 1.2 56
2019-07-21 05:00:00 22.7 8 Oeste 19 Oeste 0 965.4 1.3 54
2019-07-21 04:00:00 23.6 8 Oeste 20 Noroeste 0 965.2 3.2 50
2019-07-21 03:00:00 26.2 9 Oeste 19 Sudeste 0 964.4 2.5 28
2019-07-21 02:00:00 27.8 9 Sudoeste 69 Sur 0 964.1 2.5 25
2019-07-21 01:00:00 28.1 35 Sur 69 Sudeste 0 962 0.9 27
2019-07-21 00:00:00 27.9 32 Sur 66 Sur 0 961.9 1.8 29
2019-07-20 23:00:00 28.1 30 Sur 55 Sur 0 961.6 2.1 31
2019-07-20 22:00:00 28.4 30 Sur 64 Sudeste 0 961.1 1.7 34
2019-07-20 21:00:00 29.9 32 Sur 58 Sudeste 0 960.1 0.6 31
2019-07-20 20:00:00 31.8 35 Sur 62 Sur 0 959.5 -0.5 28
2019-07-20 19:00:00 33.7 31 Sudeste 50 Sudeste 0 959.4 -0.8 24
2019-07-20 18:00:00 35.2 28 Sudeste 48 Sudeste 0 959.5 -1.2 22
2019-07-20 17:00:00 36.6 24 Sudeste 46 Norte 0 960 -1.1 20
2019-07-20 16:00:00 37.1 14 Nordeste 25 Nordeste 0 960.2 -1.3 22
2019-07-20 15:00:00 36.6 12 Nordeste 25 Nordeste 0 960.7 -1.1 20
2019-07-20 14:00:00 34.7 11 Norte 23 Norte 0 961.1 -0.9 23
2019-07-20 13:00:00 32.9 10 Norte 19 Norte 0 961.5 -0.6 25
2019-07-20 12:00:00 31.2 8 Norte 19 Norte 0 961.8 -0.1 29
2019-07-20 11:00:00 29.1 5 Norte 10 Nordeste 0 962 0.6 37
2019-07-20 10:00:00 26 3 Este 9 Norte 0 962.1 1.3 44
2019-07-20 09:00:00 23.4 3 Este 6 Sur 0 961.9 1.6 55
2019-07-20 08:00:00 20.4 3 Sudeste 6 Este 0 961.4 1.8 73
2019-07-20 07:00:00 19.4 5 Sur 9 Oeste 0 960.8 1.4 67
2019-07-20 06:00:00 20.6 2 Este 17 Norte 0 960.3 0.9 57
2019-07-20 05:00:00 22.4 10 Norte 15 Norte 0 959.6 0.1 51
2019-07-20 04:00:00 24.6 3 Sudeste 9 Sudoeste 0 959.4 -0.2 39
2019-07-20 03:00:00 24.8 3 Sudoeste 18 Sudeste 0 959.4 0 40
2019-07-20 02:00:00 25.8 5 Noroeste 19 Oeste 0 959.5 0.3 37
2019-07-20 01:00:00 26.1 3 Este 33 Sur 0 959.6 0.8 37
2019-07-20 00:00:00 26.3 18 Sur 44 Sur 0 959.4 0.9 37
2019-07-19 23:00:00 26.8 26 Sur 49 Sudeste 0 959.2 0.6 36
2019-07-19 22:00:00 28 27 Sur 45 Sur 0 958.8 0.1 34
2019-07-19 21:00:00 29.9 23 Sudeste 41 Sudeste 0 958.5 -0.7 31
2019-07-19 20:00:00 32.3 22 Sudeste 39 Sudeste 0 958.6 -0.8 26
2019-07-19 19:00:00 33.9 21 Sudeste 31 Sudeste 0 958.7 -1.4 24
2019-07-19 18:00:00 34.8 20 Sudeste 32 Sudeste 0 959.2 -1.8 22
2019-07-19 17:00:00 36 10 Sudeste 33 Este 0 959.4 -2.5 23
2019-07-19 16:00:00 34.5 9 Norte 30 Norte 0 960.1 -2.4 28
2019-07-19 15:00:00 32.4 13 Norte 23 Norte 0 961 -2.1 22
2019-07-19 14:00:00 31.2 11 Norte 23 Norte 0 961.9 -1.5 23
2019-07-19 13:00:00 30.2 8 Nordeste 17 Nordeste 0 962.5 -1.2 23
2019-07-19 12:00:00 28.2 8 Norte 17 Norte 0 963.1 -0.6 26
2019-07-19 11:00:00 26.9 5 Norte 10 Nordeste 0 963.4 -0.1 29
2019-07-19 10:00:00 24.5 4 Nordeste 9 Norte 0 963.7 0.2 34
2019-07-19 09:00:00 22.4 3 Este 9 Sudoeste 0 963.7 0.3 40
2019-07-19 08:00:00 20 4 Sudoeste 7 Sur 0 963.5 0.2 49
2019-07-19 07:00:00 18.5 0 Calma 3 Oeste 0 963.5 0.2 53
2019-07-19 06:00:00 19.3 0 Calma 4 Sudoeste 0 963.4 0.1 50
2019-07-19 05:00:00 20.8 0 Calma 10 Norte 0 963.3 0 45
2019-07-19 04:00:00 22.3 4 Oeste 14 Sudoeste 0 963.3 0.2 40
2019-07-19 03:00:00 23.6 10 Sudoeste 21 Sudoeste 0 963.3 0.5 37
2019-07-19 02:00:00 23.9 9 Sudoeste 16 Sudoeste 0 963.3 1 34
2019-07-19 01:00:00 23.9 6 Oeste 13 Oeste 0 963.1 1.6 30
2019-07-19 00:00:00 24.9 6 Oeste 14 Oeste 0 962.8 1.7 28